Time;durP1;ratioP1;P1;durP2;ratioP2;P2;SDS_P1;SDS_P2;PMS_P1;PMS_P2;Temp;Humidity;BMP_temperature;BMP_pressure;BME280_temperature;BME280_humidity;BME280_pressure;Samples;Min_cycle;Max_cycle;Signal;HPM_P1;HPM_P2
2022/07/30 00:03:26;;;;;;;0.80;0.80;;;;;;;;;;12551647;28;20037;-76
2022/07/30 00:09:28;;;;;;;;;;;;;;;;;;12551278;28;20060;-80
2022/07/30 00:15:30;;;;;;;1.23;1.13;;;;;;;;;;12550005;28;19912;-80
2022/07/30 00:21:31;;;;;;;;;;;;;;;;;;12527667;28;20366;-76
2022/07/30 00:27:34;;;;;;;0.90;0.90;;;;;;;;;;12547481;28;19921;-76
2022/07/30 00:33:36;;;;;;;0.80;0.80;;;;;;;;;;12546183;28;20036;-79
2022/07/30 00:39:38;;;;;;;1.42;0.80;;;;;;;;;;12547569;28;20468;-80
2022/07/30 00:45:39;;;;;;;;;;;;;;;;;;12543599;28;20507;-76
2022/07/30 00:51:41;;;;;;;1.00;1.00;;;;;;;;;;12548096;28;19913;-80
2022/07/30 00:57:43;;;;;;;;;;;;;;;;;;12545213;28;20489;-79
2022/07/30 01:03:44;;;;;;;1.27;1.03;;;;;;;;;;12548554;28;19935;-79
2022/07/30 01:09:46;;;;;;;;;;;;;;;;;;12543736;28;20052;-75
2022/07/30 01:15:48;;;;;;;0.90;0.90;;;;;;;;;;12545862;28;19916;-76
2022/07/30 01:21:54;;;;;;;1.00;1.00;;;;;;;;;;12548655;28;20036;-80
2022/07/30 01:27:57;;;;;;;0.77;0.77;;;;;;;;;;12545997;28;20496;-76
2022/07/30 01:34:00;;;;;;;1.50;1.20;;;;;;;;;;12541438;28;20073;-76
2022/07/30 01:40:02;;;;;;;1.20;1.10;;;;;;;;;;12543956;28;20053;-79
2022/07/30 01:46:05;;;;;;;1.00;0.90;;;;;;;;;;12541308;28;20361;-80
2022/07/30 01:52:09;;;;;;;0.90;0.90;;;;;;;;;;12540741;28;20033;-80
2022/07/30 01:58:14;;;;;;;2.22;1.92;;;;;;;;;;12541846;28;20040;-76
2022/07/30 02:04:19;;;;;;;1.35;1.25;;;;;;;;;;12540813;28;20040;-76
2022/07/30 02:10:31;;;;;;;1.13;1.02;;;;;;;;;;12543547;28;20045;-80
2022/07/30 02:16:37;;;;;;;1.60;1.50;;;;;;;;;;12525766;28;20025;-80
2022/07/30 02:22:39;;;;;;;1.20;1.10;;;;;;;;;;12524487;28;20036;-79
2022/07/30 02:28:43;;;;;;;1.75;1.58;;;;;;;;;;12552338;28;20044;-76
2022/07/30 02:34:46;;;;;;;2.10;1.90;;;;;;;;;;12549201;28;20033;-76
2022/07/30 02:40:48;;;;;;;1.70;1.60;;;;;;;;;;12534317;28;20061;-80
2022/07/30 02:46:50;;;;;;;1.92;1.83;;;;;;;;;;12531663;28;20044;-76
2022/07/30 02:53:25;;;;;;;1.42;1.33;;;;;;;;;;12551702;28;20041;-76
2022/07/30 02:59:28;;;;;;;2.42;2.05;;;;;;;;;;12534235;28;20041;-80
2022/07/30 03:05:30;;;;;;;2.05;1.50;;;;;;;;;;12550036;28;20040;-80
2022/07/30 03:11:34;;;;;;;2.20;1.70;;;;;;;;;;12555268;28;20032;-76
2022/07/30 03:17:36;;;;;;;;;;;;;;;;;;12552087;28;20430;-80
2022/07/30 03:23:39;;;;;;;1.67;1.53;;;;;;;;;;12553070;28;19908;-76
2022/07/30 03:29:41;;;;;;;3.38;1.50;;;;;;;;;;12550388;28;20040;-76
2022/07/30 03:35:44;;;;;;;1.60;1.50;;;;;;;;;;12551035;28;20048;-80
2022/07/30 03:41:46;;;;;;;1.80;1.67;;;;;;;;;;12546156;28;20428;-78
2022/07/30 03:47:51;;;;;;;1.40;1.30;;;;;;;;;;12545389;28;20041;-78
2022/07/30 03:53:53;;;;;;;2.05;1.40;;;;;;;;;;12548640;28;20029;-79
2022/07/30 04:00:14;;;;;;;2.50;2.20;;;;;;;;;;12546381;28;20052;-79
2022/07/30 04:06:19;;;;;;;2.33;2.13;;;;;;;;;;12547606;28;20417;-80
2022/07/30 04:12:21;;;;;;;2.28;2.17;;;;;;;;;;12550867;28;20033;-75
2022/07/30 04:18:24;;;;;;;2.15;1.95;;;;;;;;;;12544114;28;20025;-79
2022/07/30 04:24:26;;;;;;;2.40;2.20;;;;;;;;;;12543708;28;20036;-76
2022/07/30 04:30:29;;;;;;;3.15;2.92;;;;;;;;;;12543261;28;20044;-76
2022/07/30 04:37:04;;;;;;;2.90;2.70;;;;;;;;;;12546081;28;20037;-76
2022/07/30 04:43:06;;;;;;;3.10;2.90;;;;;;;;;;12549371;28;20045;-76
2022/07/30 04:49:11;;;;;;;4.10;3.55;;;;;;;;;;12529155;28;20507;-76
2022/07/30 04:55:13;;;;;;;4.47;4.07;;;;;;;;;;12544086;28;20038;-75
2022/07/30 05:01:18;;;;;;;5.75;5.22;;;;;;;;;;12544529;28;20033;-79
2022/07/30 05:07:21;;;;;;;3.13;2.90;;;;;;;;;;12528433;28;20500;-79
2022/07/30 05:13:23;;;;;;;5.10;4.45;;;;;;;;;;12542193;28;20040;-76
2022/07/30 05:19:24;;;;;;;;;;;;;;;;;;12530706;28;20055;-79
2022/07/30 05:25:26;;;;;;;3.40;3.10;;;;;;;;;;12540044;28;19917;-76
2022/07/30 05:31:33;;;;;;;3.60;3.30;;;;;;;;;;12539686;28;20036;-76
2022/07/30 05:37:37;;;;;;;3.40;3.10;;;;;;;;;;12540515;28;20033;-76
2022/07/30 05:43:39;;;;;;;;;;;;;;;;;;12540121;28;20057;-76
2022/07/30 05:49:41;;;;;;;3.27;2.97;;;;;;;;;;12540610;28;19924;-76
2022/07/30 05:55:45;;;;;;;2.42;2.22;;;;;;;;;;12539089;28;20037;-76
2022/07/30 06:02:07;;;;;;;2.22;2.03;;;;;;;;;;12546919;28;20033;-80
2022/07/30 06:08:21;;;;;;;2.20;2.10;;;;;;;;;;12549107;28;20405;-76
2022/07/30 06:14:23;;;;;;;;;;;;;;;;;;12550132;28;20033;-79
2022/07/30 06:20:25;;;;;;;3.93;3.53;;;;;;;;;;12548630;28;20357;-80
2022/07/30 06:26:47;;;;;;;2.55;2.35;;;;;;;;;;12548679;28;20057;-80
2022/07/30 06:32:49;;;;;;;3.10;2.80;;;;;;;;;;12548097;28;20029;-80
2022/07/30 06:38:53;;;;;;;2.60;2.20;;;;;;;;;;12547488;28;20037;-80
2022/07/30 06:45:05;;;;;;;2.90;2.60;;;;;;;;;;12548051;28;20052;-77
2022/07/30 06:51:33;;;;;;;2.17;2.08;;;;;;;;;;12548950;28;20041;-77
2022/07/30 06:57:35;;;;;;;2.53;2.30;;;;;;;;;;12547076;28;20029;-75
2022/07/30 07:03:39;;;;;;;2.13;2.00;;;;;;;;;;12582579;28;20507;-76
2022/07/30 07:09:41;;;;;;;2.30;2.20;;;;;;;;;;12546444;28;20052;-76
2022/07/30 07:16:24;;;;;;;2.35;2.15;;;;;;;;;;12543735;28;20084;-79
2022/07/30 07:22:27;;;;;;;2.30;2.10;;;;;;;;;;12529193;28;20041;-76
2022/07/30 07:28:29;;;;;;;2.50;2.30;;;;;;;;;;12545312;28;20405;-77
2022/07/30 07:34:32;;;;;;;2.60;2.40;;;;;;;;;;12545164;28;20393;-77
2022/07/30 07:40:34;;;;;;;2.55;2.35;;;;;;;;;;12545545;28;20091;-77
2022/07/30 07:46:36;;;;;;;2.15;1.95;;;;;;;;;;12544905;28;20048;-79
2022/07/30 07:52:38;;;;;;;2.72;2.53;;;;;;;;;;12544831;28;20056;-80
2022/07/30 07:58:41;;;;;;;2.67;2.30;;;;;;;;;;12558874;28;20052;-79
2022/07/30 08:04:45;;;;;;;2.15;2.05;;;;;;;;;;12547453;28;20029;-80
2022/07/30 08:10:47;;;;;;;1.98;1.88;;;;;;;;;;12545270;28;20053;-77
2022/07/30 08:17:09;;;;;;;2.90;2.70;;;;;;;;;;12544907;28;20060;-77
2022/07/30 08:23:29;;;;;;;2.08;1.83;;;;;;;;;;12542052;28;20044;-76
2022/07/30 08:29:31;;;;;;;1.70;1.45;;;;;;;;;;12543719;28;20044;-77
2022/07/30 08:35:33;;;;;;;2.00;1.70;;;;;;;;;;12547251;28;20198;-77
2022/07/30 08:41:36;;;;;;;2.17;1.98;;;;;;;;;;12546691;28;20049;-76
2022/07/30 08:47:40;;;;;;;2.08;1.23;;;;;;;;;;12541573;28;20534;-77
2022/07/30 08:53:45;;;;;;;1.50;1.40;;;;;;;;;;12541691;28;20040;-76
2022/07/30 08:59:50;;;;;;;1.35;0.90;;;;;;;;;;12541274;28;20037;-77
2022/07/30 09:05:52;;;;;;;1.27;1.20;;;;;;;;;;12535258;28;20052;-80
2022/07/30 09:11:53;;;;;;;1.40;1.30;;;;;;;;;;12541312;28;20041;-80
2022/07/30 09:18:02;;;;;;;1.20;1.10;;;;;;;;;;12541260;28;20525;-79
2022/07/30 09:24:08;;;;;;;1.40;1.17;;;;;;;;;;12541205;28;20052;-80
2022/07/30 09:30:45;;;;;;;0.95;0.95;;;;;;;;;;12547560;28;20268;-77
2022/07/30 09:37:08;;;;;;;2.63;1.35;;;;;;;;;;12540757;28;20033;-76
2022/07/30 09:43:52;;;;;;;1.40;1.30;;;;;;;;;;12548312;28;20516;-77
2022/07/30 09:50:04;;;;;;;1.23;1.20;;;;;;;;;;12539458;28;20056;-81
2022/07/30 09:56:26;;;;;;;2.08;1.10;;;;;;;;;;12539180;28;20040;-79
2022/07/30 10:02:31;;;;;;;1.02;0.98;;;;;;;;;;12539159;28;20041;-80
2022/07/30 10:08:59;;;;;;;1.00;1.00;;;;;;;;;;12540295;28;20045;-76
2022/07/30 10:15:02;;;;;;;2.25;0.90;;;;;;;;;;12539409;28;20033;-76
2022/07/30 10:21:05;;;;;;;0.80;0.80;;;;;;;;;;12523307;28;20029;-79
2022/07/30 10:27:26;;;;;;;0.70;0.70;;;;;;;;;;12540302;28;20060;-76
2022/07/30 10:33:50;;;;;;;0.77;0.77;;;;;;;;;;12531180;28;20036;-77
2022/07/30 10:39:57;;;;;;;0.80;0.80;;;;;;;;;;12540134;28;20036;-79
2022/07/30 10:46:05;;;;;;;0.63;0.63;;;;;;;;;;12522727;28;20052;-76
2022/07/30 10:52:07;;;;;;;0.52;0.52;;;;;;;;;;12547605;28;20029;-79
2022/07/30 10:58:11;;;;;;;1.08;1.00;;;;;;;;;;12548217;28;20033;-76
2022/07/30 11:04:19;;;;;;;1.08;0.98;;;;;;;;;;12547973;28;20029;-76
2022/07/30 11:10:33;;;;;;;0.70;0.60;;;;;;;;;;12547637;28;20401;-76
2022/07/30 11:16:35;;;;;;;0.70;0.70;;;;;;;;;;12546677;28;20052;-76
2022/07/30 11:22:39;;;;;;;0.90;0.90;;;;;;;;;;12594392;28;20041;-76
2022/07/30 11:28:41;;;;;;;0.73;0.73;;;;;;;;;;12550647;28;20053;-76
2022/07/30 11:34:42;;;;;;;0.80;0.80;;;;;;;;;;12546736;28;20493;-76
2022/07/30 11:40:50;;;;;;;0.80;0.80;;;;;;;;;;12528909;28;20056;-77
2022/07/30 11:46:52;;;;;;;0.80;0.70;;;;;;;;;;12545621;28;20553;-77
2022/07/30 11:52:53;;;;;;;0.95;0.70;;;;;;;;;;12544319;28;20029;-76
2022/07/30 11:59:02;;;;;;;1.33;0.80;;;;;;;;;;12543812;28;20245;-76
2022/07/30 12:05:06;;;;;;;0.70;0.70;;;;;;;;;;12544114;28;20036;-77
2022/07/30 12:11:08;;;;;;;1.05;0.98;;;;;;;;;;12548389;28;20049;-77
2022/07/30 12:17:09;;;;;;;0.93;0.93;;;;;;;;;;12544334;28;20040;-77
2022/07/30 12:23:14;;;;;;;0.80;0.77;;;;;;;;;;12544064;28;20044;-77
2022/07/30 12:29:17;;;;;;;0.60;0.60;;;;;;;;;;12542922;28;20481;-76
2022/07/30 12:35:18;;;;;;;0.70;0.70;;;;;;;;;;12542253;28;20044;-76
2022/07/30 12:41:21;;;;;;;1.33;0.90;;;;;;;;;;12544497;28;20064;-77
2022/07/30 12:47:23;;;;;;;1.00;0.90;;;;;;;;;;12543963;28;20547;-77
2022/07/30 12:53:28;;;;;;;1.05;0.60;;;;;;;;;;12542846;28;20036;-77
2022/07/30 12:59:31;;;;;;;0.60;0.60;;;;;;;;;;12541369;28;20060;-77
2022/07/30 13:05:46;;;;;;;0.88;0.80;;;;;;;;;;12542212;28;20021;-77
2022/07/30 13:11:50;;;;;;;2.13;1.10;;;;;;;;;;12541676;28;20041;-76
2022/07/30 13:17:51;;;;;;;0.80;0.80;;;;;;;;;;12540368;28;20041;-76
2022/07/30 13:23:53;;;;;;;0.82;0.82;;;;;;;;;;12541521;28;20044;-75
2022/07/30 13:29:55;;;;;;;1.02;0.80;;;;;;;;;;12540017;28;20414;-76
2022/07/30 13:35:56;;;;;;;1.00;1.00;;;;;;;;;;12541044;28;20040;-76
2022/07/30 13:41:58;;;;;;;2.03;1.00;;;;;;;;;;12541095;28;20064;-77
2022/07/30 13:48:00;;;;;;;0.60;0.60;;;;;;;;;;12539141;28;20056;-76
2022/07/30 13:54:02;;;;;;;0.70;0.70;;;;;;;;;;12540929;28;20033;-77
2022/07/30 14:00:04;;;;;;;0.52;0.52;;;;;;;;;;12541804;28;20033;-78
2022/07/30 14:06:07;;;;;;;1.20;0.70;;;;;;;;;;12542137;28;20056;-77
2022/07/30 14:12:09;;;;;;;1.27;0.80;;;;;;;;;;12543793;28;20034;-77
2022/07/30 14:18:11;;;;;;;0.43;0.43;;;;;;;;;;12542937;28;20040;-76
2022/07/30 14:24:15;;;;;;;0.73;0.68;;;;;;;;;;12551740;28;20021;-78
2022/07/30 14:30:16;;;;;;;0.40;0.40;;;;;;;;;;12551217;28;20041;-77
2022/07/30 14:36:18;;;;;;;0.30;0.30;;;;;;;;;;12551215;28;20048;-76
2022/07/30 14:42:20;;;;;;;0.50;0.35;;;;;;;;;;12551008;28;20064;-78
2022/07/30 14:48:22;;;;;;;0.40;0.40;;;;;;;;;;12551914;28;20045;-76
2022/07/30 14:54:23;;;;;;;0.30;0.30;;;;;;;;;;12567739;28;20035;-76
2022/07/30 15:00:25;;;;;;;0.30;0.30;;;;;;;;;;12585359;28;20041;-76
2022/07/30 15:06:27;;;;;;;0.30;0.30;;;;;;;;;;12550178;28;20516;-76
2022/07/30 15:12:29;;;;;;;0.30;0.30;;;;;;;;;;12550297;28;20053;-76
2022/07/30 15:18:30;;;;;;;0.45;0.40;;;;;;;;;;12599846;28;20035;-80
2022/07/30 15:24:32;;;;;;;0.40;0.30;;;;;;;;;;12532501;28;20032;-79
2022/07/30 15:30:34;;;;;;;0.28;0.20;;;;;;;;;;12548662;28;20041;-80
2022/07/30 15:36:37;;;;;;;0.90;0.30;;;;;;;;;;12549324;28;20048;-79
2022/07/30 15:42:41;;;;;;;0.30;0.30;;;;;;;;;;12549555;28;20064;-79
2022/07/30 15:48:43;;;;;;;0.10;0.10;;;;;;;;;;12549057;28;20409;-79
2022/07/30 15:54:44;;;;;;;0.32;0.20;;;;;;;;;;12549438;28;20033;-80
2022/07/30 16:00:46;;;;;;;0.90;0.30;;;;;;;;;;12548681;28;20401;-80
2022/07/30 16:06:48;;;;;;;0.40;0.20;;;;;;;;;;12546909;28;20433;-80
2022/07/30 16:12:50;;;;;;;0.40;0.20;;;;;;;;;;12547516;28;20041;-80
2022/07/30 16:18:51;;;;;;;0.35;0.20;;;;;;;;;;12547860;28;20524;-79
2022/07/30 16:24:53;;;;;;;0.35;0.10;;;;;;;;;;12547612;28;20048;-79
2022/07/30 16:30:55;;;;;;;0.28;0.20;;;;;;;;;;12547109;28;20255;-80
2022/07/30 16:36:57;;;;;;;0.80;0.40;;;;;;;;;;12547963;28;20060;-76
2022/07/30 16:42:58;;;;;;;0.20;0.17;;;;;;;;;;12545960;28;20049;-76
2022/07/30 16:49:00;;;;;;;1.58;0.80;;;;;;;;;;12546031;28;20378;-75
2022/07/30 16:55:02;;;;;;;0.70;0.47;;;;;;;;;;12545312;28;20029;-76
2022/07/30 17:01:04;;;;;;;0.57;0.40;;;;;;;;;;12545783;28;20033;-76
2022/07/30 17:07:06;;;;;;;0.52;0.40;;;;;;;;;;12544413;28;20048;-76
2022/07/30 17:13:07;;;;;;;0.43;0.30;;;;;;;;;;12544406;28;20528;-76
2022/07/30 17:19:09;;;;;;;1.38;0.30;;;;;;;;;;12543826;28;20033;-76
2022/07/30 17:25:11;;;;;;;0.25;0.25;;;;;;;;;;12545260;28;20041;-80
2022/07/30 17:31:13;;;;;;;0.75;0.40;;;;;;;;;;12542902;28;20045;-80
2022/07/30 17:37:15;;;;;;;0.43;0.30;;;;;;;;;;12543332;28;20037;-80
2022/07/30 17:43:17;;;;;;;0.55;0.20;;;;;;;;;;12543265;28;20041;-80
2022/07/30 17:49:19;;;;;;;1.45;0.38;;;;;;;;;;12542800;28;20045;-80
2022/07/30 17:55:21;;;;;;;0.98;0.30;;;;;;;;;;12546962;28;20032;-80
2022/07/30 18:01:23;;;;;;;0.40;0.40;;;;;;;;;;12559324;28;20034;-80
2022/07/30 18:07:25;;;;;;;1.10;0.30;;;;;;;;;;12559035;28;20041;-80
2022/07/30 18:13:26;;;;;;;0.45;0.43;;;;;;;;;;12559561;28;20482;-80
2022/07/30 18:19:28;;;;;;;0.20;0.20;;;;;;;;;;12558788;28;20033;-80
2022/07/30 18:25:35;;;;;;;1.27;0.47;;;;;;;;;;12560144;28;20043;-80
2022/07/30 18:31:37;;;;;;;0.63;0.52;;;;;;;;;;12559937;28;20154;-80
2022/07/30 18:37:38;;;;;;;0.52;0.45;;;;;;;;;;12558582;28;20044;-80
2022/07/30 18:43:40;;;;;;;0.40;0.38;;;;;;;;;;12558063;28;20080;-77
2022/07/30 18:49:42;;;;;;;0.68;0.43;;;;;;;;;;12558660;28;20374;-80
2022/07/30 18:55:44;;;;;;;0.75;0.57;;;;;;;;;;12558105;28;20481;-80
2022/07/30 19:01:46;;;;;;;0.57;0.22;;;;;;;;;;12557942;28;20059;-80
2022/07/30 19:07:47;;;;;;;0.40;0.35;;;;;;;;;;12555061;28;20048;-80
2022/07/30 19:13:49;;;;;;;0.30;0.30;;;;;;;;;;12560660;28;20037;-78
2022/07/30 19:19:51;;;;;;;0.40;0.30;;;;;;;;;;12592557;28;20044;-79
2022/07/30 19:25:52;;;;;;;0.30;0.30;;;;;;;;;;12549401;28;20206;-80
2022/07/30 19:31:54;;;;;;;0.43;0.30;;;;;;;;;;12549006;28;20048;-79
2022/07/30 19:37:56;;;;;;;0.38;0.30;;;;;;;;;;12549682;28;20044;-80
2022/07/30 19:43:59;;;;;;;1.27;0.63;;;;;;;;;;12548717;28;20502;-80
2022/07/30 19:50:00;;;;;;;0.40;0.40;;;;;;;;;;12548228;28;20037;-80
2022/07/30 19:56:03;;;;;;;0.55;0.47;;;;;;;;;;12549230;28;20032;-81
2022/07/30 20:02:05;;;;;;;0.57;0.57;;;;;;;;;;12550744;28;20037;-79
2022/07/30 20:08:08;;;;;;;0.98;0.57;;;;;;;;;;12548004;28;20048;-80
2022/07/30 20:14:09;;;;;;;0.50;0.50;;;;;;;;;;12549739;28;20071;-79
2022/07/30 20:20:11;;;;;;;0.50;0.50;;;;;;;;;;12546421;28;20040;-80
2022/07/30 20:26:14;;;;;;;0.47;0.47;;;;;;;;;;12547742;28;20044;-80
2022/07/30 20:32:16;;;;;;;0.40;0.40;;;;;;;;;;12529066;28;20032;-78
2022/07/30 20:38:18;;;;;;;0.50;0.50;;;;;;;;;;12544742;28;20402;-81
2022/07/30 20:44:19;;;;;;;0.52;0.43;;;;;;;;;;12546224;28;20064;-81
2022/07/30 20:50:21;;;;;;;0.60;0.60;;;;;;;;;;12545140;28;20041;-80
2022/07/30 20:56:26;;;;;;;0.88;0.52;;;;;;;;;;12545383;28;20025;-80
2022/07/30 21:02:28;;;;;;;0.38;0.38;;;;;;;;;;12543764;28;20048;-80
2022/07/30 21:08:30;;;;;;;0.30;0.30;;;;;;;;;;12542050;28;20049;-80
2022/07/30 21:14:32;;;;;;;0.50;0.32;;;;;;;;;;12542087;28;20422;-80
2022/07/30 21:20:34;;;;;;;0.40;0.30;;;;;;;;;;12540274;28;20033;-80
2022/07/30 21:26:39;;;;;;;0.40;0.40;;;;;;;;;;12540662;28;20041;-79
2022/07/30 21:32:40;;;;;;;0.47;0.47;;;;;;;;;;12540719;28;20352;-80
2022/07/30 21:38:42;;;;;;;0.93;0.40;;;;;;;;;;12540367;28;20497;-79
2022/07/30 21:44:44;;;;;;;0.63;0.30;;;;;;;;;;12542822;28;20309;-80
2022/07/30 21:50:46;;;;;;;1.25;0.40;;;;;;;;;;12539631;28;20068;-76
2022/07/30 21:56:48;;;;;;;0.60;0.57;;;;;;;;;;12539590;28;20529;-77
2022/07/30 22:02:50;;;;;;;0.70;0.70;;;;;;;;;;12540345;28;20044;-77
2022/07/30 22:08:52;;;;;;;0.35;0.30;;;;;;;;;;12539099;28;20040;-76
2022/07/30 22:14:54;;;;;;;0.60;0.60;;;;;;;;;;12522567;28;20025;-76
2022/07/30 22:20:55;;;;;;;0.50;0.50;;;;;;;;;;12540306;28;20029;-80
2022/07/30 22:27:01;;;;;;;0.43;0.43;;;;;;;;;;12541719;28;20033;-77
2022/07/30 22:33:10;;;;;;;0.65;0.65;;;;;;;;;;12538770;28;20048;-80
2022/07/30 22:39:11;;;;;;;0.40;0.40;;;;;;;;;;12539105;28;20033;-79
2022/07/30 22:45:13;;;;;;;1.05;0.40;;;;;;;;;;12545541;28;20048;-79
2022/07/30 22:51:15;;;;;;;0.70;0.70;;;;;;;;;;12549058;28;20052;-80
2022/07/30 22:57:17;;;;;;;0.82;0.70;;;;;;;;;;12547510;28;20036;-79
2022/07/30 23:03:19;;;;;;;2.83;2.17;;;;;;;;;;12549352;28;20029;-76
2022/07/30 23:09:20;;;;;;;2.03;1.67;;;;;;;;;;12546832;28;20045;-76
2022/07/30 23:15:22;;;;;;;;;;;;;;;;;;12555596;28;20032;-80
2022/07/30 23:21:23;;;;;;;3.42;2.75;;;;;;;;;;12547985;28;20384;-79
2022/07/30 23:27:25;;;;;;;;;;;;;;;;;;12547484;28;20362;-79
2022/07/30 23:33:27;;;;;;;1.65;1.48;;;;;;;;;;12547024;28;19915;-76
2022/07/30 23:39:28;;;;;;;1.63;1.40;;;;;;;;;;12546985;28;20123;-80
2022/07/30 23:45:30;;;;;;;;;;;;;;;;;;12546488;28;20063;-80
2022/07/30 23:51:33;;;;;;;1.30;1.20;;;;;;;;;;12546896;28;19944;-75
2022/07/30 23:57:34;;;;;;;;;;;;;;;;;;12545818;28;20032;-80
